Richwood, West Virginia
Current Conditions -  °F | °C
As of 1:35 PM on Sunday 21 Dec 2014 (Local Time) from KLWB Reporting Station
Clear Clear  
Wind Chill: 42°   Ceiling: Unl
Heat Index: 45°   Visibility: 10mi
Dew Point: 27°   Wind: 5mph
Humidity: 49%   Direction: 270°W
Pressure: 30.16"   Gusts: NA
Location:  38.22°N, 80.53°W
Report Text: KLWB 211835Z AUTO 27004KT 10SM CLR 07/M03 A3016 RMK AO2 T00711030
Loading
Personal Weather Stations






























Interactive Weather Map New forecast layout! Learn more

10-Day Weather Forecast

Advertisements
Track Severe Weather on mobile